createdAt,value
2018-10-19T00:01:59.777Z,7.20
2018-10-19T00:04:28.086Z,7.10
2018-10-19T00:06:56.498Z,7.10
2018-10-19T00:09:24.813Z,7.10
2018-10-19T00:11:53.129Z,7.10
2018-10-19T00:14:21.450Z,7.00
2018-10-19T00:16:49.754Z,7.00
2018-10-19T00:19:18.049Z,7.10
2018-10-19T00:21:46.381Z,7.10
2018-10-19T00:24:14.734Z,7.10
2018-10-19T00:26:43.061Z,7.10
2018-10-19T00:29:11.422Z,7.10
2018-10-19T00:31:39.813Z,7.00
2018-10-19T00:34:08.466Z,7.00
2018-10-19T00:36:36.853Z,7.00
2018-10-19T00:39:07.378Z,7.10
2018-10-19T00:41:35.666Z,7.10
2018-10-19T00:44:04.156Z,7.10
2018-10-19T00:46:32.611Z,7.00
2018-10-19T00:49:01.003Z,7.10
2018-10-19T00:51:29.418Z,7.10
2018-10-19T00:53:57.773Z,7.10
2018-10-19T00:56:26.077Z,7.10
2018-10-19T00:58:54.408Z,7.20
2018-10-19T01:01:22.725Z,7.20
2018-10-19T01:03:50.992Z,7.20
2018-10-19T01:06:19.351Z,7.20
2018-10-19T01:08:47.720Z,7.20
2018-10-19T01:11:16.075Z,7.20
2018-10-19T01:13:45.457Z,7.20
2018-10-19T01:16:13.725Z,7.20
2018-10-19T01:18:41.998Z,7.20
2018-10-19T01:21:10.357Z,7.20
2018-10-19T01:23:38.603Z,7.20
2018-10-19T01:26:07.028Z,7.20
2018-10-19T01:28:35.293Z,7.20
2018-10-19T01:31:03.648Z,7.10
2018-10-19T01:33:31.972Z,7.10
2018-10-19T01:36:00.325Z,7.00
2018-10-19T01:38:28.638Z,7.00
2018-10-19T01:40:56.929Z,7.00
2018-10-19T01:43:25.294Z,6.90
2018-10-19T01:45:57.122Z,6.90
2018-10-19T01:48:25.952Z,6.90
2018-10-19T01:50:54.265Z,6.90
2018-10-19T01:53:22.573Z,6.90
2018-10-19T01:55:50.861Z,6.80
2018-10-19T01:58:19.103Z,6.80
2018-10-19T02:00:47.370Z,6.70
2018-10-19T02:03:15.684Z,6.70
2018-10-19T02:05:43.962Z,6.60
2018-10-19T02:08:12.281Z,6.60
2018-10-19T02:10:40.717Z,6.60
2018-10-19T02:13:09.892Z,6.60
2018-10-19T02:15:38.425Z,6.60
2018-10-19T02:18:07.125Z,6.60
2018-10-19T02:20:35.424Z,6.60
2018-10-19T02:23:03.809Z,6.60
2018-10-19T02:25:32.053Z,6.60
2018-10-19T02:28:00.360Z,6.60
2018-10-19T02:30:28.652Z,6.60
2018-10-19T02:32:56.974Z,6.60
2018-10-19T02:35:25.243Z,6.50
2018-10-19T02:37:53.533Z,6.50
2018-10-19T02:40:21.793Z,6.40
2018-10-19T02:42:50.118Z,6.40
2018-10-19T02:45:18.488Z,6.40
2018-10-19T02:47:46.733Z,6.40
2018-10-19T02:50:15.021Z,6.30
2018-10-19T02:52:43.309Z,6.20
2018-10-19T02:55:11.641Z,6.20
2018-10-19T02:57:39.928Z,6.20
2018-10-19T03:00:09.874Z,6.30
2018-10-19T03:02:38.161Z,6.20
2018-10-19T03:05:07.129Z,6.20
2018-10-19T03:07:35.425Z,6.10
2018-10-19T03:10:03.924Z,6.00
2018-10-19T03:12:32.180Z,6.00
2018-10-19T03:15:00.511Z,5.90
2018-10-19T03:17:31.026Z,5.90
2018-10-19T03:19:59.676Z,5.90
2018-10-19T03:22:28.136Z,5.90
2018-10-19T03:24:56.449Z,5.90
2018-10-19T03:27:24.751Z,5.90
2018-10-19T03:29:53.068Z,5.80
2018-10-19T03:32:21.357Z,5.80
2018-10-19T03:34:49.667Z,5.80
2018-10-19T03:37:18.038Z,5.80
2018-10-19T03:39:46.321Z,5.80
2018-10-19T03:42:14.670Z,5.70
2018-10-19T03:44:43.062Z,5.70
2018-10-19T03:47:11.615Z,5.70
2018-10-19T03:49:39.828Z,5.70
2018-10-19T03:52:08.153Z,5.60
2018-10-19T03:54:36.521Z,5.50
2018-10-19T03:57:05.223Z,5.50
2018-10-19T03:59:33.530Z,5.40
2018-10-19T04:02:01.905Z,5.40
2018-10-19T04:04:30.294Z,5.30
2018-10-19T04:06:58.618Z,5.30
2018-10-19T04:09:26.924Z,5.20
2018-10-19T04:11:55.242Z,5.20
2018-10-19T04:14:23.561Z,5.20
2018-10-19T04:16:51.899Z,5.10
2018-10-19T04:19:20.355Z,5.10
2018-10-19T04:21:48.628Z,5.10
2018-10-19T04:24:16.950Z,5.10
2018-10-19T04:26:45.230Z,5.10
2018-10-19T04:29:13.650Z,5.10
2018-10-19T04:31:41.869Z,5.10
2018-10-19T04:34:10.173Z,5.00
2018-10-19T04:36:38.424Z,5.00
2018-10-19T04:39:07.841Z,4.90
2018-10-19T04:41:36.371Z,4.90
2018-10-19T04:44:06.081Z,4.90
2018-10-19T04:46:34.373Z,4.80
2018-10-19T04:49:03.073Z,4.80
2018-10-19T04:51:31.474Z,4.80
2018-10-19T04:54:00.269Z,4.70
2018-10-19T04:56:29.378Z,4.70
2018-10-19T04:58:57.657Z,4.70
2018-10-19T05:01:25.939Z,4.70
2018-10-19T05:03:54.239Z,4.70
2018-10-19T05:06:22.508Z,4.70
2018-10-19T05:08:50.803Z,4.80
2018-10-19T05:11:19.166Z,4.80
2018-10-19T05:13:47.462Z,4.80
2018-10-19T05:16:15.764Z,4.90
2018-10-19T05:18:44.108Z,4.90
2018-10-19T05:21:12.397Z,4.90
2018-10-19T05:23:40.793Z,4.90
2018-10-19T05:26:09.143Z,4.90
2018-10-19T05:28:37.470Z,5.00
2018-10-19T05:31:06.488Z,5.00
2018-10-19T05:33:34.969Z,5.00
2018-10-19T05:36:04.100Z,5.00
2018-10-19T05:38:32.438Z,5.00
2018-10-19T05:41:00.960Z,5.00
2018-10-19T05:43:29.230Z,5.00
2018-10-19T05:45:57.490Z,5.00
2018-10-19T05:48:25.790Z,5.00
2018-10-19T05:50:54.157Z,5.10
2018-10-19T05:53:23.149Z,5.10
2018-10-19T05:55:51.782Z,5.10
2018-10-19T05:58:20.301Z,5.20
2018-10-19T06:00:48.557Z,5.20
2018-10-19T06:03:16.925Z,5.20
2018-10-19T06:05:45.185Z,5.20
2018-10-19T06:08:13.554Z,5.30
2018-10-19T06:10:41.847Z,5.30
2018-10-19T06:13:10.125Z,5.40
2018-10-19T06:15:38.422Z,5.40
2018-10-19T06:18:06.732Z,5.40
2018-10-19T06:20:35.001Z,5.40
2018-10-19T06:23:03.385Z,5.40
2018-10-19T06:25:31.666Z,5.50
2018-10-19T06:27:59.963Z,5.40
2018-10-19T06:30:28.349Z,5.40
2018-10-19T06:32:56.656Z,5.50
2018-10-19T06:35:25.344Z,5.50
2018-10-19T06:37:53.739Z,5.50
2018-10-19T06:40:22.008Z,5.60
2018-10-19T06:42:50.335Z,5.60
2018-10-19T06:45:18.693Z,5.60
2018-10-19T06:47:46.944Z,5.70
2018-10-19T06:50:15.266Z,5.70
2018-10-19T06:52:43.744Z,5.80
2018-10-19T06:55:15.169Z,5.80
2018-10-19T06:57:43.532Z,5.80
2018-10-19T07:00:12.241Z,5.80
2018-10-19T07:02:40.533Z,5.90
2018-10-19T07:05:09.192Z,5.90
2018-10-19T07:07:37.825Z,5.90
2018-10-19T07:10:07.192Z,5.90
2018-10-19T07:12:35.540Z,5.90
2018-10-19T07:15:03.941Z,5.90
2018-10-19T07:17:32.217Z,5.90
2018-10-19T07:20:00.504Z,5.90
2018-10-19T07:22:34.291Z,5.90
2018-10-19T07:25:02.952Z,6.00
2018-10-19T07:27:31.252Z,6.00
2018-10-19T07:29:59.933Z,6.00
2018-10-19T07:32:28.272Z,6.10
2018-10-19T07:34:56.551Z,6.20
2018-10-19T07:37:25.023Z,6.20
2018-10-19T07:39:53.458Z,6.30
2018-10-19T07:42:22.025Z,6.20
2018-10-19T07:44:50.288Z,6.20
2018-10-19T07:47:18.679Z,6.30
2018-10-19T07:49:47.970Z,6.30
2018-10-19T07:52:16.375Z,6.40
2018-10-19T07:54:44.733Z,6.50
2018-10-19T07:57:12.989Z,6.60
2018-10-19T07:59:41.270Z,6.80
2018-10-19T08:02:09.586Z,6.90
2018-10-19T08:04:37.903Z,7.00
2018-10-19T08:07:06.324Z,7.20
2018-10-19T08:09:34.624Z,7.40
2018-10-19T08:12:02.878Z,7.60
2018-10-19T08:14:31.665Z,7.70
2018-10-19T08:16:59.962Z,7.70
2018-10-19T08:19:28.309Z,7.80
2018-10-19T08:21:56.572Z,8.00
2018-10-19T08:24:25.005Z,8.20
2018-10-19T08:26:53.266Z,8.70
2018-10-19T08:29:21.613Z,9.30
2018-10-19T08:31:49.865Z,9.70
2018-10-19T08:34:18.187Z,10.00
2018-10-19T08:36:46.476Z,10.20
2018-10-19T08:39:14.746Z,10.60
2018-10-19T08:41:43.107Z,11.20
2018-10-19T08:44:11.376Z,11.70
2018-10-19T08:46:40.749Z,12.00
2018-10-19T08:49:21.494Z,11.80
2018-10-19T08:51:49.776Z,11.70
2018-10-19T08:54:18.064Z,11.60
2018-10-19T08:56:46.356Z,11.60
2018-10-19T08:59:14.756Z,12.00
2018-10-19T09:01:43.001Z,12.60
2018-10-19T09:04:11.322Z,13.30
2018-10-19T09:06:39.568Z,13.80
2018-10-19T09:09:09.358Z,14.20
2018-10-19T09:11:37.800Z,14.70
2018-10-19T09:14:17.464Z,14.80
2018-10-19T09:16:46.224Z,15.10
2018-10-19T09:19:14.526Z,15.40
2018-10-19T09:21:42.907Z,15.50
2018-10-19T09:24:11.232Z,15.80
2018-10-19T09:26:39.602Z,15.80
2018-10-19T09:29:08.054Z,15.90
2018-10-19T09:31:36.384Z,16.10
2018-10-19T09:34:05.012Z,16.40
2018-10-19T09:36:33.547Z,16.80
2018-10-19T09:39:01.655Z,17.00
2018-10-19T09:41:30.060Z,17.00
2018-10-19T09:43:58.298Z,16.80
2018-10-19T09:46:26.605Z,17.20
2018-10-19T09:48:54.941Z,17.40
2018-10-19T09:51:23.216Z,17.30
2018-10-19T09:53:51.534Z,17.60
2018-10-19T09:56:19.878Z,17.90
2018-10-19T09:58:48.194Z,18.00
2018-10-19T10:01:21.917Z,18.20
2018-10-19T10:03:50.242Z,18.30
2018-10-19T10:06:18.649Z,18.20
2018-10-19T10:08:46.947Z,18.40
2018-10-19T10:11:15.279Z,18.40
2018-10-19T10:13:43.579Z,18.50
2018-10-19T10:16:11.853Z,18.50
2018-10-19T10:18:40.785Z,18.40
2018-10-19T10:21:09.163Z,18.60
2018-10-19T10:23:37.497Z,18.70
2018-10-19T10:26:05.773Z,18.40
2018-10-19T10:28:34.194Z,18.10
2018-10-19T10:31:02.569Z,18.20
2018-10-19T10:33:30.796Z,18.40
2018-10-19T10:35:59.126Z,18.50
2018-10-19T10:38:27.461Z,18.50
2018-10-19T10:40:55.747Z,18.70
2018-10-19T10:43:24.001Z,18.80
2018-10-19T10:45:52.343Z,18.80
2018-10-19T10:48:20.641Z,18.40
2018-10-19T10:50:48.917Z,18.60
2018-10-19T10:53:17.384Z,18.80
2018-10-19T10:55:45.719Z,18.90
2018-10-19T10:58:14.127Z,19.00
2018-10-19T11:00:42.508Z,19.10
2018-10-19T11:03:10.829Z,19.00
2018-10-19T11:05:39.174Z,19.10
2018-10-19T11:08:07.869Z,19.20
2018-10-19T11:10:36.236Z,19.00
2018-10-19T11:13:04.649Z,18.90
2018-10-19T11:15:32.961Z,18.60
2018-10-19T11:18:01.257Z,18.10
2018-10-19T11:20:29.596Z,17.70
2018-10-19T11:22:57.981Z,17.60
2018-10-19T11:25:26.309Z,17.70
2018-10-19T11:27:54.614Z,17.60
2018-10-19T11:30:23.010Z,17.40
2018-10-19T11:32:51.361Z,17.10
2018-10-19T11:35:19.707Z,17.20
2018-10-19T11:37:48.045Z,17.10
2018-10-19T11:40:24.177Z,17.00
2018-10-19T11:42:53.372Z,17.00
2018-10-19T11:45:22.057Z,16.90
2018-10-19T11:47:50.363Z,16.90
2018-10-19T11:50:18.713Z,17.10
2018-10-19T11:52:47.284Z,17.00
2018-10-19T11:55:15.574Z,17.00
2018-10-19T11:57:43.805Z,17.10
2018-10-19T12:00:12.140Z,17.20
2018-10-19T12:02:40.404Z,17.50
2018-10-19T12:05:08.938Z,17.70
2018-10-19T12:07:37.648Z,18.10
2018-10-19T12:10:06.801Z,18.50
2018-10-19T12:12:35.128Z,18.90
2018-10-19T12:15:03.596Z,19.40
2018-10-19T12:17:31.885Z,19.90
2018-10-19T12:20:00.141Z,20.20
2018-10-19T12:22:28.412Z,20.50
2018-10-19T12:24:56.662Z,20.60
2018-10-19T12:27:25.013Z,20.90
2018-10-19T12:29:53.457Z,21.00
2018-10-19T12:32:22.005Z,20.50
2018-10-19T12:34:50.324Z,20.50
2018-10-19T12:37:18.681Z,19.90
2018-10-19T12:39:47.005Z,19.70
2018-10-19T12:42:15.313Z,19.30
2018-10-19T12:44:43.607Z,19.60
2018-10-19T12:47:23.163Z,20.10
2018-10-19T12:49:51.600Z,20.60
2018-10-19T12:52:20.156Z,21.10
2018-10-19T12:54:48.553Z,21.40
2018-10-19T12:57:17.230Z,21.70
2018-10-19T12:59:45.633Z,22.00
2018-10-19T13:02:14.610Z,22.20
2018-10-19T13:04:42.937Z,22.30
2018-10-19T13:07:11.390Z,22.40
2018-10-19T13:09:39.812Z,22.60
2018-10-19T13:12:08.105Z,22.90
2018-10-19T13:14:36.405Z,23.10
2018-10-19T13:17:04.992Z,23.60
2018-10-19T13:19:33.336Z,23.70
2018-10-19T13:22:01.673Z,23.60
2018-10-19T13:24:29.957Z,24.00
2018-10-19T13:26:58.268Z,24.20
2018-10-19T13:29:33.337Z,24.20
2018-10-19T13:32:01.661Z,24.40
2018-10-19T13:34:30.073Z,24.60
2018-10-19T13:36:58.345Z,24.50
2018-10-19T13:39:26.600Z,24.30
2018-10-19T13:41:54.876Z,24.30
2018-10-19T13:44:23.198Z,24.50
2018-10-19T13:46:51.461Z,24.50
2018-10-19T13:49:19.790Z,24.20
2018-10-19T13:51:48.068Z,23.80
2018-10-19T13:54:16.370Z,23.40
2018-10-19T13:56:44.616Z,23.50
2018-10-19T13:59:13.022Z,23.30
2018-10-19T14:01:41.270Z,23.80
2018-10-19T14:04:09.677Z,23.80
2018-10-19T14:06:37.995Z,24.30
2018-10-19T14:09:08.972Z,24.60
2018-10-19T14:11:37.365Z,25.00
2018-10-19T14:14:05.844Z,25.20
2018-10-19T14:16:34.168Z,25.10
2018-10-19T14:19:02.742Z,24.80
2018-10-19T14:21:31.041Z,24.60
2018-10-19T14:23:59.396Z,24.60
2018-10-19T14:26:27.737Z,24.60
2018-10-19T14:28:56.133Z,24.20
2018-10-19T14:31:24.485Z,23.80
2018-10-19T14:33:52.784Z,23.70
2018-10-19T14:36:21.224Z,23.60
2018-10-19T14:38:54.391Z,23.20
2018-10-19T14:41:22.866Z,22.70
2018-10-19T14:43:51.486Z,22.20
2018-10-19T14:46:20.866Z,21.80
2018-10-19T14:48:49.769Z,21.30
2018-10-19T14:51:18.424Z,21.00
2018-10-19T14:53:47.078Z,20.40
2018-10-19T14:56:17.644Z,19.90
2018-10-19T14:58:47.311Z,19.40
2018-10-19T15:01:16.165Z,18.90
2018-10-19T15:03:44.507Z,18.40
2018-10-19T15:06:12.872Z,18.10
2018-10-19T15:08:41.170Z,17.80
2018-10-19T15:11:09.577Z,17.60
2018-10-19T15:13:37.797Z,17.30
2018-10-19T15:16:06.204Z,17.10
2018-10-19T15:18:34.615Z,17.00
2018-10-19T15:21:02.969Z,16.90
2018-10-19T15:23:31.257Z,16.70
2018-10-19T15:25:59.574Z,16.60
2018-10-19T15:28:27.859Z,16.40
2018-10-19T15:30:56.138Z,16.30
2018-10-19T15:33:24.418Z,16.10
2018-10-19T15:35:52.949Z,15.90
2018-10-19T15:38:21.197Z,15.80
2018-10-19T15:40:49.656Z,15.50
2018-10-19T15:43:18.069Z,15.40
2018-10-19T15:45:46.900Z,15.30
2018-10-19T15:48:15.297Z,15.10
2018-10-19T15:50:43.629Z,14.90
2018-10-19T15:53:11.997Z,14.80
2018-10-19T15:55:40.321Z,14.60
2018-10-19T15:58:08.761Z,14.40
2018-10-19T16:00:37.105Z,14.30
2018-10-19T16:03:05.533Z,14.20
2018-10-19T16:05:33.902Z,14.10
2018-10-19T16:08:02.326Z,14.00
2018-10-19T16:10:30.630Z,13.90
2018-10-19T16:12:58.957Z,13.80
2018-10-19T16:15:27.309Z,13.70
2018-10-19T16:17:55.949Z,13.60
2018-10-19T16:20:24.220Z,13.40
2018-10-19T16:22:52.503Z,13.30
2018-10-19T16:25:20.862Z,13.20
2018-10-19T16:27:49.202Z,13.10
2018-10-19T16:30:17.552Z,13.00
2018-10-19T16:32:45.933Z,13.00
2018-10-19T16:35:14.265Z,12.90
2018-10-19T16:37:42.707Z,12.90
2018-10-19T16:40:11.580Z,12.90
2018-10-19T16:42:40.182Z,12.80
2018-10-19T16:45:09.037Z,12.70
2018-10-19T16:47:37.405Z,12.70
2018-10-19T16:50:06.110Z,12.70
2018-10-19T16:52:35.340Z,12.60
2018-10-19T16:55:03.645Z,12.60
2018-10-19T16:57:32.332Z,12.50
2018-10-19T17:00:00.755Z,12.50
2018-10-19T17:02:29.231Z,12.50
2018-10-19T17:04:57.768Z,12.50
2018-10-19T17:07:26.209Z,12.40
2018-10-19T17:09:54.588Z,12.40
2018-10-19T17:12:23.165Z,12.30
2018-10-19T17:14:51.490Z,12.30
2018-10-19T17:17:20.451Z,12.30
2018-10-19T17:19:49.236Z,12.20
2018-10-19T17:22:21.762Z,12.20
2018-10-19T17:24:50.129Z,12.10
2018-10-19T17:27:18.582Z,12.10
2018-10-19T17:29:47.139Z,12.00
2018-10-19T17:32:15.664Z,11.90
2018-10-19T17:34:43.964Z,11.90
2018-10-19T17:37:12.499Z,11.80
2018-10-19T17:39:40.864Z,11.70
2018-10-19T17:42:09.403Z,11.60
2018-10-19T17:44:37.580Z,11.60
2018-10-19T17:47:06.172Z,11.50
2018-10-19T17:49:34.653Z,11.50
2018-10-19T17:52:03.157Z,11.40
2018-10-19T17:54:31.629Z,11.40
2018-10-19T17:56:59.815Z,11.30
2018-10-19T17:59:28.480Z,11.30
2018-10-19T18:01:56.839Z,11.20
2018-10-19T18:04:25.265Z,11.20
2018-10-19T18:06:53.890Z,11.10
2018-10-19T18:09:22.303Z,11.00
2018-10-19T18:11:50.717Z,11.00
2018-10-19T18:14:19.029Z,10.90
2018-10-19T18:16:48.911Z,10.80
2018-10-19T18:19:17.555Z,10.70
2018-10-19T18:21:46.094Z,10.60
2018-10-19T18:24:14.759Z,10.50
2018-10-19T18:26:43.253Z,10.50
2018-10-19T18:29:12.423Z,10.40
2018-10-19T18:31:40.719Z,10.30
2018-10-19T18:34:09.193Z,10.20
2018-10-19T18:36:38.341Z,10.10
2018-10-19T18:39:09.519Z,10.00
2018-10-19T18:41:38.021Z,9.90
2018-10-19T18:44:07.293Z,9.80
2018-10-19T18:46:35.648Z,9.70
2018-10-19T18:49:04.062Z,9.60
2018-10-19T18:51:32.457Z,9.50
2018-10-19T18:54:00.784Z,9.50
2018-10-19T18:56:29.143Z,9.50
2018-10-19T18:58:57.612Z,9.50
2018-10-19T19:01:26.121Z,9.40
2018-10-19T19:03:54.623Z,9.40
2018-10-19T19:06:23.071Z,9.30
2018-10-19T19:08:51.524Z,9.30
2018-10-19T19:11:19.817Z,9.20
2018-10-19T19:13:49.606Z,9.10
2018-10-19T19:16:23.337Z,9.10
2018-10-19T19:18:51.934Z,9.00
2018-10-19T19:21:20.275Z,8.90
2018-10-19T19:23:53.965Z,8.90
2018-10-19T19:26:23.617Z,8.80
2018-10-19T19:28:51.969Z,8.80
2018-10-19T19:31:20.365Z,8.80
2018-10-19T19:33:54.007Z,8.80
2018-10-19T19:36:22.408Z,8.80
2018-10-19T19:38:50.773Z,8.80
2018-10-19T19:41:24.497Z,8.80
2018-10-19T19:43:52.810Z,8.80
2018-10-19T19:46:21.108Z,8.70
2018-10-19T19:48:54.938Z,8.70
2018-10-19T19:51:23.239Z,8.70
2018-10-19T19:53:51.543Z,8.70
2018-10-19T19:56:19.897Z,8.60
2018-10-19T19:58:48.222Z,8.50
2018-10-19T20:01:16.559Z,8.40
2018-10-19T20:03:44.869Z,8.30
2018-10-19T20:06:13.261Z,8.20
2018-10-19T20:08:41.541Z,8.20
2018-10-19T20:11:09.927Z,8.10
2018-10-19T20:13:38.411Z,8.00
2018-10-19T20:16:06.780Z,7.90
2018-10-19T20:18:35.118Z,7.90
2018-10-19T20:21:03.419Z,7.80
2018-10-19T20:23:31.945Z,7.70
2018-10-19T20:26:00.511Z,7.70
2018-10-19T20:28:28.843Z,7.60
2018-10-19T20:30:57.297Z,7.60
2018-10-19T20:33:26.098Z,7.50
2018-10-19T20:35:54.479Z,7.50
2018-10-19T20:38:22.873Z,7.40
2018-10-19T20:40:51.374Z,7.40
2018-10-19T20:43:19.737Z,7.40
2018-10-19T20:45:48.068Z,7.30
2018-10-19T20:48:16.415Z,7.30
2018-10-19T20:50:44.738Z,7.30
2018-10-19T20:53:13.212Z,7.20
2018-10-19T20:55:41.506Z,7.10
2018-10-19T20:58:09.877Z,7.10
2018-10-19T21:00:38.397Z,7.10
2018-10-19T21:03:06.821Z,7.00
2018-10-19T21:05:35.237Z,7.00
2018-10-19T21:08:03.629Z,7.00
2018-10-19T21:10:32.192Z,6.90
2018-10-19T21:13:00.522Z,6.90
2018-10-19T21:15:28.829Z,6.80
2018-10-19T21:17:57.182Z,6.70
2018-10-19T21:20:25.476Z,6.70
2018-10-19T21:22:53.885Z,6.70
2018-10-19T21:25:22.429Z,6.70
2018-10-19T21:27:51.045Z,6.60
2018-10-19T21:30:19.359Z,6.60
2018-10-19T21:32:47.676Z,6.60
2018-10-19T21:35:15.961Z,6.50
2018-10-19T21:37:44.289Z,6.50
2018-10-19T21:40:12.618Z,6.50
2018-10-19T21:42:40.976Z,6.40
2018-10-19T21:45:09.436Z,6.30
2018-10-19T21:47:37.756Z,6.30
2018-10-19T21:50:06.879Z,6.30
2018-10-19T21:52:35.248Z,6.20
2018-10-19T21:55:03.625Z,6.10
2018-10-19T21:57:31.964Z,6.10
2018-10-19T22:00:00.223Z,6.00
2018-10-19T22:02:28.478Z,6.00
2018-10-19T22:04:56.760Z,5.90
2018-10-19T22:07:25.116Z,5.90
2018-10-19T22:09:53.477Z,5.80
2018-10-19T22:12:21.772Z,5.80
2018-10-19T22:14:50.093Z,5.80
2018-10-19T22:17:18.357Z,5.70
2018-10-19T22:19:46.713Z,5.60
2018-10-19T22:22:15.033Z,5.60
2018-10-19T22:24:43.454Z,5.60
2018-10-19T22:27:11.669Z,5.50
2018-10-19T22:29:39.962Z,5.50
2018-10-19T22:32:08.344Z,5.60
2018-10-19T22:34:36.625Z,5.60
2018-10-19T22:37:05.567Z,5.60
2018-10-19T22:39:34.105Z,5.60
2018-10-19T22:42:02.625Z,5.60
2018-10-19T22:44:30.985Z,5.60
2018-10-19T22:46:59.532Z,5.60
2018-10-19T22:49:27.960Z,5.50
2018-10-19T22:51:56.453Z,5.60
2018-10-19T22:54:24.884Z,5.50
2018-10-19T22:56:53.417Z,5.50
2018-10-19T22:59:21.893Z,5.50
2018-10-19T23:01:50.327Z,5.40
2018-10-19T23:04:18.677Z,5.40
2018-10-19T23:06:47.205Z,5.40
2018-10-19T23:09:15.509Z,5.40
2018-10-19T23:11:43.805Z,5.40
2018-10-19T23:14:12.168Z,5.40
2018-10-19T23:16:40.483Z,5.40
2018-10-19T23:19:08.868Z,5.30
2018-10-19T23:21:37.167Z,5.30
2018-10-19T23:24:05.851Z,5.30
2018-10-19T23:26:34.243Z,5.20
2018-10-19T23:29:02.644Z,5.20
2018-10-19T23:31:31.031Z,5.10
2018-10-19T23:33:59.213Z,5.10
2018-10-19T23:36:27.556Z,5.00
2018-10-19T23:38:55.944Z,5.00
2018-10-19T23:41:24.394Z,4.90
2018-10-19T23:43:52.836Z,4.90
2018-10-19T23:46:21.213Z,4.80
2018-10-19T23:48:49.722Z,4.80
2018-10-19T23:51:18.084Z,4.80
2018-10-19T23:53:46.411Z,4.80
2018-10-19T23:56:14.736Z,4.70
2018-10-19T23:58:42.998Z,4.70
